Time;durP1;ratioP1;P1;durP2;ratioP2;P2;SDS_P1;SDS_P2;PMS_P1;PMS_P2;Temp;Humidity;BMP_temperature;BMP_pressure;BME280_temperature;BME280_humidity;BME280_pressure;Samples;Min_cycle;Max_cycle;Signal;HPM_P1;HPM_P2
2022/04/24 00:01:01;;;;;;;33.03;25.57;;;;;;;;;;5017490;28;20199;-66
2022/04/24 00:03:28;;;;;;;34.67;26.03;;;;;;;;;;5018878;28;20666;-65
2022/04/24 00:05:55;;;;;;;31.97;23.77;;;;;;;;;;5020933;28;20854;-65
2022/04/24 00:08:23;;;;;;;34.47;25.90;;;;;;;;;;5019102;28;20203;-65
2022/04/24 00:10:50;;;;;;;33.33;25.07;;;;;;;;;;5019329;28;20762;-66
2022/04/24 00:13:18;;;;;;;33.77;25.77;;;;;;;;;;5015319;28;21470;-64
2022/04/24 00:15:45;;;;;;;32.70;24.83;;;;;;;;;;5010867;28;20226;-67
2022/04/24 00:18:13;;;;;;;33.67;25.47;;;;;;;;;;5014560;28;21219;-67
2022/04/24 00:20:40;;;;;;;37.23;26.30;;;;;;;;;;5008634;28;20215;-67
2022/04/24 00:23:07;;;;;;;34.53;26.23;;;;;;;;;;5012441;28;20267;-65
2022/04/24 00:25:35;;;;;;;33.80;26.27;;;;;;;;;;5016505;28;20230;-66
2022/04/24 00:28:02;;;;;;;34.33;25.90;;;;;;;;;;5029117;28;20194;-67
2022/04/24 00:30:30;;;;;;;33.87;25.57;;;;;;;;;;5017136;28;20262;-66
2022/04/24 00:32:57;;;;;;;34.03;25.00;;;;;;;;;;5008667;28;20234;-65
2022/04/24 00:35:24;;;;;;;32.67;24.47;;;;;;;;;;5003655;28;20282;-65
2022/04/24 00:37:52;;;;;;;33.80;24.83;;;;;;;;;;5011753;28;20229;-65
2022/04/24 00:40:19;;;;;;;33.73;25.43;;;;;;;;;;5010613;28;20568;-65
2022/04/24 00:42:47;;;;;;;34.97;25.43;;;;;;;;;;5014295;28;20213;-66
2022/04/24 00:45:14;;;;;;;31.77;24.23;;;;;;;;;;5020402;28;20253;-66
2022/04/24 00:47:42;;;;;;;33.93;24.93;;;;;;;;;;5013705;28;20211;-67
2022/04/24 00:50:09;;;;;;;33.97;25.40;;;;;;;;;;5009005;28;20226;-66
2022/04/24 00:52:37;;;;;;;30.83;23.90;;;;;;;;;;5005657;28;20241;-65
2022/04/24 00:55:05;;;;;;;32.90;24.27;;;;;;;;;;5005811;28;21063;-67
2022/04/24 00:57:33;;;;;;;31.30;23.97;;;;;;;;;;5013982;28;20248;-66
2022/04/24 01:00:01;;;;;;;31.87;24.33;;;;;;;;;;5008429;28;20249;-66
2022/04/24 01:02:28;;;;;;;32.43;23.87;;;;;;;;;;5007110;28;20336;-67
2022/04/24 01:04:57;;;;;;;30.07;23.10;;;;;;;;;;5009674;28;20237;-67
2022/04/24 01:07:25;;;;;;;30.63;24.40;;;;;;;;;;5008688;28;20206;-66
2022/04/24 01:09:52;;;;;;;32.37;23.27;;;;;;;;;;5019265;28;20672;-66
2022/04/24 01:12:19;;;;;;;31.37;23.63;;;;;;;;;;5012914;28;20231;-67
2022/04/24 01:14:47;;;;;;;34.67;25.00;;;;;;;;;;5019866;28;20559;-64
2022/04/24 01:17:14;;;;;;;33.57;24.73;;;;;;;;;;5009101;28;20269;-66
2022/04/24 01:19:41;;;;;;;32.13;24.93;;;;;;;;;;5010173;28;20227;-66
2022/04/24 01:22:09;;;;;;;31.90;24.30;;;;;;;;;;5021694;28;20686;-64
2022/04/24 01:24:36;;;;;;;32.23;24.33;;;;;;;;;;5003954;28;20218;-66
2022/04/24 01:27:04;;;;;;;32.37;24.67;;;;;;;;;;5013209;28;20226;-66
2022/04/24 01:29:32;;;;;;;31.57;24.33;;;;;;;;;;5010117;28;20206;-66
2022/04/24 01:31:59;;;;;;;32.53;24.63;;;;;;;;;;5012099;28;20208;-64
2022/04/24 01:34:27;;;;;;;36.57;25.83;;;;;;;;;;5014590;28;20209;-66
2022/04/24 01:36:54;;;;;;;33.20;25.87;;;;;;;;;;5009766;28;21031;-63
2022/04/24 01:39:21;;;;;;;32.63;25.13;;;;;;;;;;5013839;28;20195;-66
2022/04/24 01:41:51;;;;;;;34.23;25.13;;;;;;;;;;5010760;28;20617;-66
2022/04/24 01:44:19;;;;;;;36.63;26.73;;;;;;;;;;5014141;28;20198;-66
2022/04/24 01:46:46;;;;;;;33.57;25.00;;;;;;;;;;5015587;28;20746;-67
2022/04/24 01:49:14;;;;;;;35.70;26.67;;;;;;;;;;5014983;28;20238;-66
2022/04/24 01:51:41;;;;;;;34.63;25.50;;;;;;;;;;5026718;28;20308;-66
2022/04/24 01:54:09;;;;;;;37.47;28.50;;;;;;;;;;5016100;28;20690;-65
2022/04/24 01:56:36;;;;;;;39.07;28.10;;;;;;;;;;5020369;28;20218;-66
2022/04/24 01:59:04;;;;;;;35.53;26.83;;;;;;;;;;5018539;28;20214;-65
2022/04/24 02:01:31;;;;;;;39.33;29.00;;;;;;;;;;5027302;28;20203;-65
2022/04/24 02:03:58;;;;;;;39.50;29.00;;;;;;;;;;5022642;28;20341;-65
2022/04/24 02:06:26;;;;;;;40.60;30.07;;;;;;;;;;5016195;28;20245;-65
2022/04/24 02:08:53;;;;;;;36.13;28.00;;;;;;;;;;5009703;28;20301;-65
2022/04/24 02:11:21;;;;;;;40.10;30.30;;;;;;;;;;5018680;28;20219;-65
2022/04/24 02:13:48;;;;;;;38.80;28.17;;;;;;;;;;5014158;28;20230;-66
2022/04/24 02:16:16;;;;;;;41.33;30.77;;;;;;;;;;5019367;28;20218;-67
2022/04/24 02:18:43;;;;;;;39.10;29.73;;;;;;;;;;5010432;28;20210;-65
2022/04/24 02:21:11;;;;;;;41.77;30.60;;;;;;;;;;5018501;28;20207;-64
2022/04/24 02:23:38;;;;;;;38.37;28.80;;;;;;;;;;5017556;28;20207;-65
2022/04/24 02:26:06;;;;;;;45.23;31.63;;;;;;;;;;5030217;28;20222;-65
2022/04/24 02:28:33;;;;;;;42.37;31.17;;;;;;;;;;5005102;28;20210;-65
2022/04/24 02:31:00;;;;;;;45.90;33.60;;;;;;;;;;5015400;28;20207;-66
2022/04/24 02:33:28;;;;;;;44.57;32.83;;;;;;;;;;5019985;28;20302;-65
2022/04/24 02:35:55;;;;;;;46.70;33.30;;;;;;;;;;5008159;28;20258;-66
2022/04/24 02:38:23;;;;;;;44.37;31.93;;;;;;;;;;5000781;28;20285;-65
2022/04/24 02:40:50;;;;;;;45.17;32.93;;;;;;;;;;5018218;28;20203;-65
2022/04/24 02:43:17;;;;;;;47.30;34.53;;;;;;;;;;5013830;28;20225;-65
2022/04/24 02:45:45;;;;;;;44.47;33.30;;;;;;;;;;5015385;28;20990;-65
2022/04/24 02:48:12;;;;;;;44.80;32.87;;;;;;;;;;5015150;28;20207;-65
2022/04/24 02:50:39;;;;;;;46.27;32.50;;;;;;;;;;5013909;28;20281;-65
2022/04/24 02:53:07;;;;;;;44.90;32.77;;;;;;;;;;5016098;28;20219;-64
2022/04/24 02:55:35;;;;;;;45.00;32.57;;;;;;;;;;5016926;28;20222;-64
2022/04/24 02:58:02;;;;;;;45.90;33.80;;;;;;;;;;5018957;28;20206;-66
2022/04/24 03:00:50;;;;;;;45.37;33.17;;;;;;;;;;5032057;28;20253;-66
2022/04/24 03:03:19;;;;;;;46.27;32.33;;;;;;;;;;5019107;28;20701;-65
2022/04/24 03:05:50;;;;;;;44.43;32.20;;;;;;;;;;5012593;28;20305;-66
2022/04/24 03:08:18;;;;;;;45.07;32.27;;;;;;;;;;5024194;28;20222;-64
2022/04/24 03:10:46;;;;;;;43.50;32.60;;;;;;;;;;5022882;28;20222;-65
2022/04/24 03:13:13;;;;;;;46.80;32.70;;;;;;;;;;5023792;28;20219;-64
2022/04/24 03:15:41;;;;;;;44.60;32.80;;;;;;;;;;5024843;28;20285;-65
2022/04/24 03:18:08;;;;;;;47.33;33.37;;;;;;;;;;5020332;28;20908;-63
2022/04/24 03:20:35;;;;;;;45.57;33.23;;;;;;;;;;5021262;28;20233;-65
2022/04/24 03:23:03;;;;;;;45.90;31.87;;;;;;;;;;5020167;28;20214;-64
2022/04/24 03:25:30;;;;;;;46.63;33.23;;;;;;;;;;5021521;28;20231;-64
2022/04/24 03:27:58;;;;;;;48.00;34.20;;;;;;;;;;5016600;28;20826;-63
2022/04/24 03:30:25;;;;;;;46.30;32.37;;;;;;;;;;5013080;28;20581;-65
2022/04/24 03:32:52;;;;;;;47.27;32.93;;;;;;;;;;5023725;28;20333;-65
2022/04/24 03:35:20;;;;;;;48.97;33.10;;;;;;;;;;5004799;28;25175;-65
2022/04/24 03:37:47;;;;;;;49.57;33.50;;;;;;;;;;5012648;28;20199;-64
2022/04/24 03:40:15;;;;;;;46.17;33.00;;;;;;;;;;5009626;28;20206;-65
2022/04/24 03:42:42;;;;;;;50.67;33.67;;;;;;;;;;5016218;28;20211;-64
2022/04/24 03:45:11;;;;;;;49.20;33.97;;;;;;;;;;5001553;28;20314;-65
2022/04/24 03:47:39;;;;;;;50.27;33.77;;;;;;;;;;5008710;28;20213;-65
2022/04/24 03:50:07;;;;;;;51.57;32.27;;;;;;;;;;5006695;28;21914;-64
2022/04/24 03:52:34;;;;;;;45.63;30.93;;;;;;;;;;5012295;28;22886;-66
2022/04/24 03:55:02;;;;;;;32.17;23.63;;;;;;;;;;5013381;28;20227;-65
2022/04/24 03:57:30;;;;;;;28.33;20.53;;;;;;;;;;5016488;28;20218;-64
2022/04/24 03:59:58;;;;;;;20.90;15.00;;;;;;;;;;5005789;28;20246;-64
2022/04/24 04:02:25;;;;;;;15.23;12.37;;;;;;;;;;5016476;28;20202;-65
2022/04/24 04:04:53;;;;;;;8.30;6.33;;;;;;;;;;5022783;28;20233;-64
2022/04/24 04:07:20;;;;;;;4.17;3.47;;;;;;;;;;5010593;28;20207;-65
2022/04/24 04:09:48;;;;;;;3.50;3.20;;;;;;;;;;5012155;28;20218;-65
2022/04/24 04:12:15;;;;;;;2.33;2.10;;;;;;;;;;5012152;28;20214;-64
2022/04/24 04:14:42;;;;;;;1.80;1.70;;;;;;;;;;5014267;28;20234;-65
2022/04/24 04:17:10;;;;;;;2.40;1.57;;;;;;;;;;5011528;28;20218;-66
2022/04/24 04:19:38;;;;;;;1.43;0.90;;;;;;;;;;5008876;28;20203;-63
2022/04/24 04:22:06;;;;;;;0.80;0.80;;;;;;;;;;5006687;28;20850;-65
2022/04/24 04:24:33;;;;;;;0.60;0.60;;;;;;;;;;5011644;28;20199;-64
2022/04/24 04:27:01;;;;;;;0.70;0.70;;;;;;;;;;5006202;28;20584;-65
2022/04/24 04:29:28;;;;;;;0.80;0.80;;;;;;;;;;5014551;28;20854;-64
2022/04/24 04:32:02;;;;;;;1.23;0.80;;;;;;;;;;5014269;28;20210;-65
2022/04/24 04:34:30;;;;;;;0.77;0.67;;;;;;;;;;5032748;28;20230;-65
2022/04/24 04:36:57;;;;;;;1.47;1.20;;;;;;;;;;5024823;28;20236;-65
2022/04/24 04:39:25;;;;;;;1.60;1.50;;;;;;;;;;5007569;28;20211;-64
2022/04/24 04:41:52;;;;;;;2.23;1.70;;;;;;;;;;5013654;28;20632;-65
2022/04/24 04:44:20;;;;;;;1.10;1.00;;;;;;;;;;5013707;28;20657;-62
2022/04/24 04:46:47;;;;;;;1.33;1.10;;;;;;;;;;5014122;28;20257;-63
2022/04/24 04:49:15;;;;;;;5.57;1.90;;;;;;;;;;5015628;28;20281;-64
2022/04/24 04:51:42;;;;;;;7.60;4.90;;;;;;;;;;5010910;28;20221;-63
2022/04/24 04:54:10;;;;;;;0.90;0.90;;;;;;;;;;5020162;28;20301;-65
2022/04/24 04:56:37;;;;;;;1.50;1.27;;;;;;;;;;5019253;28;20226;-64
2022/04/24 04:59:05;;;;;;;1.17;1.10;;;;;;;;;;5019811;28;20210;-64
2022/04/24 05:01:32;;;;;;;1.70;1.60;;;;;;;;;;5010816;28;20211;-64
2022/04/24 05:04:03;;;;;;;1.10;1.10;;;;;;;;;;5016127;28;20211;-65
2022/04/24 05:06:30;;;;;;;1.47;0.90;;;;;;;;;;5008823;28;22082;-65
2022/04/24 05:08:57;;;;;;;1.17;1.17;;;;;;;;;;5015507;28;20234;-64
2022/04/24 05:11:25;;;;;;;0.80;0.80;;;;;;;;;;5015161;28;20220;-64
2022/04/24 05:13:52;;;;;;;0.77;0.77;;;;;;;;;;5013421;28;20846;-62
2022/04/24 05:16:20;;;;;;;0.83;0.73;;;;;;;;;;5015030;28;21144;-65
2022/04/24 05:18:47;;;;;;;0.87;0.87;;;;;;;;;;5012898;28;20214;-65
2022/04/24 05:21:17;;;;;;;0.70;0.70;;;;;;;;;;5006505;28;20222;-63
2022/04/24 05:23:46;;;;;;;0.63;0.63;;;;;;;;;;5008596;28;20219;-63
2022/04/24 05:26:13;;;;;;;0.87;0.87;;;;;;;;;;5010341;28;20585;-65
2022/04/24 05:28:41;;;;;;;1.00;0.90;;;;;;;;;;5009878;28;20207;-65
2022/04/24 05:31:08;;;;;;;0.77;0.77;;;;;;;;;;5004238;28;20212;-63
2022/04/24 05:33:37;;;;;;;0.80;0.80;;;;;;;;;;5012174;28;20262;-64
2022/04/24 05:36:05;;;;;;;0.83;0.83;;;;;;;;;;5015133;28;20317;-65
2022/04/24 05:38:33;;;;;;;0.93;0.87;;;;;;;;;;5014737;28;20668;-63
2022/04/24 05:41:01;;;;;;;0.93;0.70;;;;;;;;;;5012494;28;20230;-63
2022/04/24 05:43:28;;;;;;;0.63;0.63;;;;;;;;;;5009090;28;20207;-63
2022/04/24 05:45:56;;;;;;;0.90;0.90;;;;;;;;;;5003527;28;20238;-65
2022/04/24 05:48:23;;;;;;;1.37;0.73;;;;;;;;;;5008573;28;20230;-64
2022/04/24 05:50:51;;;;;;;0.70;0.70;;;;;;;;;;5018927;28;20581;-64
2022/04/24 05:53:18;;;;;;;0.93;0.80;;;;;;;;;;5005983;28;20296;-64
2022/04/24 05:55:45;;;;;;;1.10;1.00;;;;;;;;;;5016178;28;20227;-64
2022/04/24 05:58:13;;;;;;;0.70;0.70;;;;;;;;;;5015752;28;20203;-65
2022/04/24 06:00:40;;;;;;;0.80;0.80;;;;;;;;;;5012806;28;20273;-64
2022/04/24 06:03:08;;;;;;;1.80;0.90;;;;;;;;;;5023989;28;20685;-64
2022/04/24 06:05:35;;;;;;;1.70;1.60;;;;;;;;;;5022420;28;20273;-63
2022/04/24 06:08:03;;;;;;;0.80;0.80;;;;;;;;;;5021004;28;20203;-65
2022/04/24 06:10:30;;;;;;;0.80;0.80;;;;;;;;;;5019543;28;20267;-64
2022/04/24 06:12:58;;;;;;;0.87;0.87;;;;;;;;;;5025142;28;20574;-64
2022/04/24 06:15:27;;;;;;;0.60;0.60;;;;;;;;;;5017791;28;20330;-64
2022/04/24 06:17:55;;;;;;;1.33;1.33;;;;;;;;;;5025563;28;20207;-65
2022/04/24 06:20:23;;;;;;;1.00;1.00;;;;;;;;;;5018997;28;20226;-64
2022/04/24 06:22:52;;;;;;;0.90;0.90;;;;;;;;;;5025172;28;20207;-65
2022/04/24 06:25:20;;;;;;;1.00;0.87;;;;;;;;;;5016919;28;20222;-64
2022/04/24 06:27:49;;;;;;;1.80;0.70;;;;;;;;;;5021181;28;20204;-62
2022/04/24 06:30:17;;;;;;;0.83;0.83;;;;;;;;;;5020548;28;20274;-64
2022/04/24 06:32:45;;;;;;;0.90;0.90;;;;;;;;;;5010404;28;20334;-65
2022/04/24 06:35:16;;;;;;;0.70;0.70;;;;;;;;;;5021389;28;20277;-65
2022/04/24 06:37:54;;;;;;;1.40;0.87;;;;;;;;;;5019850;28;20656;-65
2022/04/24 06:40:25;;;;;;;0.70;0.70;;;;;;;;;;5014817;28;20212;-62
2022/04/24 06:42:57;;;;;;;1.00;0.80;;;;;;;;;;5022411;28;20215;-65
2022/04/24 06:45:32;;;;;;;0.80;0.80;;;;;;;;;;5022293;28;20231;-65
2022/04/24 06:48:20;;;;;;;0.80;0.80;;;;;;;;;;5019848;28;20210;-63
2022/04/24 06:50:48;;;;;;;0.83;0.83;;;;;;;;;;5014464;28;20211;-62
2022/04/24 06:53:20;;;;;;;1.50;1.40;;;;;;;;;;5014588;28;20615;-65
2022/04/24 06:55:48;;;;;;;1.07;0.80;;;;;;;;;;5022326;28;20223;-63
2022/04/24 06:58:17;;;;;;;1.30;1.30;;;;;;;;;;5023345;28;20735;-64
2022/04/24 07:00:45;;;;;;;2.30;2.10;;;;;;;;;;5023017;28;20198;-62
2022/04/24 07:03:32;;;;;;;1.00;1.00;;;;;;;;;;5021675;28;20709;-62
2022/04/24 07:06:03;;;;;;;5.63;4.50;;;;;;;;;;5017811;28;20231;-62
2022/04/24 07:08:31;;;;;;;1.40;1.30;;;;;;;;;;5017683;28;20208;-62
2022/04/24 07:10:58;;;;;;;0.90;0.90;;;;;;;;;;5017825;28;20897;-65
2022/04/24 07:13:25;;;;;;;1.50;1.40;;;;;;;;;;5009588;28;20273;-65
2022/04/24 07:15:53;;;;;;;1.67;1.57;;;;;;;;;;5008931;28;20285;-63
2022/04/24 07:18:21;;;;;;;1.63;1.53;;;;;;;;;;5017312;28;20227;-62
2022/04/24 07:20:48;;;;;;;9.07;3.97;;;;;;;;;;5018128;28;20216;-63
2022/04/24 07:23:17;;;;;;;0.90;0.90;;;;;;;;;;5018836;28;20218;-64
2022/04/24 07:25:45;;;;;;;1.50;1.50;;;;;;;;;;5019961;28;20238;-64
2022/04/24 07:28:13;;;;;;;0.77;0.77;;;;;;;;;;5015063;28;20703;-63
2022/04/24 07:30:40;;;;;;;0.70;0.70;;;;;;;;;;5016704;28;20782;-62
2022/04/24 07:33:09;;;;;;;0.80;0.80;;;;;;;;;;5014404;28;20203;-63
2022/04/24 07:35:38;;;;;;;1.10;0.80;;;;;;;;;;5011470;28;20843;-64
2022/04/24 07:38:06;;;;;;;0.93;0.90;;;;;;;;;;5010362;28;20214;-65
2022/04/24 07:40:35;;;;;;;0.90;0.90;;;;;;;;;;5011979;28;20204;-63
2022/04/24 07:43:04;;;;;;;0.60;0.60;;;;;;;;;;5013548;28;20259;-63
2022/04/24 07:45:31;;;;;;;0.70;0.70;;;;;;;;;;5016104;28;20692;-64
2022/04/24 07:47:59;;;;;;;2.57;2.30;;;;;;;;;;5006217;28;20310;-64
2022/04/24 07:50:28;;;;;;;3.00;2.27;;;;;;;;;;5005603;28;20731;-61
2022/04/24 07:52:56;;;;;;;0.60;0.60;;;;;;;;;;5006016;28;20222;-63
2022/04/24 07:55:24;;;;;;;0.80;0.80;;;;;;;;;;5005888;28;20257;-65
2022/04/24 07:57:53;;;;;;;0.60;0.60;;;;;;;;;;5008103;28;20571;-64
2022/04/24 08:00:21;;;;;;;1.50;0.90;;;;;;;;;;5010709;28;20215;-63
2022/04/24 08:02:54;;;;;;;0.70;0.70;;;;;;;;;;5003514;28;20207;-64
2022/04/24 08:05:23;;;;;;;0.60;0.60;;;;;;;;;;5012562;28;20235;-64
2022/04/24 08:07:50;;;;;;;0.60;0.60;;;;;;;;;;5010815;28;21138;-64
2022/04/24 08:10:18;;;;;;;0.83;0.83;;;;;;;;;;5007015;28;20207;-64
2022/04/24 08:12:49;;;;;;;0.90;0.90;;;;;;;;;;5005959;28;20207;-64
2022/04/24 08:15:17;;;;;;;0.80;0.80;;;;;;;;;;5014258;28;20231;-64
2022/04/24 08:17:45;;;;;;;0.60;0.60;;;;;;;;;;5016313;28;20261;-63
2022/04/24 08:20:13;;;;;;;0.70;0.70;;;;;;;;;;5015566;28;20250;-63
2022/04/24 08:22:41;;;;;;;0.87;0.63;;;;;;;;;;5016699;28;20203;-63
2022/04/24 08:25:09;;;;;;;0.70;0.70;;;;;;;;;;5016083;28;20297;-64
2022/04/24 08:27:37;;;;;;;1.30;1.20;;;;;;;;;;5012944;28;20242;-65
2022/04/24 08:30:09;;;;;;;0.80;0.80;;;;;;;;;;5028278;28;20211;-63
2022/04/24 08:32:38;;;;;;;3.93;1.00;;;;;;;;;;5030990;28;20217;-66
2022/04/24 08:35:06;;;;;;;0.90;0.90;;;;;;;;;;5009497;28;20658;-64
2022/04/24 08:37:34;;;;;;;1.00;1.00;;;;;;;;;;5013434;28;20266;-63
2022/04/24 08:40:01;;;;;;;0.97;0.97;;;;;;;;;;5016445;28;20203;-64
2022/04/24 08:42:29;;;;;;;0.77;0.77;;;;;;;;;;5014702;28;20207;-63
2022/04/24 08:44:56;;;;;;;1.23;1.13;;;;;;;;;;5012247;28;20783;-64
2022/04/24 08:47:25;;;;;;;0.87;0.87;;;;;;;;;;5004470;28;20242;-63
2022/04/24 08:49:53;;;;;;;1.07;0.80;;;;;;;;;;5011684;28;20222;-63
2022/04/24 08:52:22;;;;;;;0.93;0.90;;;;;;;;;;5008849;28;20207;-63
2022/04/24 08:54:50;;;;;;;0.80;0.80;;;;;;;;;;5013184;28;20645;-63
2022/04/24 08:57:18;;;;;;;0.90;0.90;;;;;;;;;;5003727;28;20211;-63
2022/04/24 08:59:45;;;;;;;0.90;0.90;;;;;;;;;;5006551;28;20218;-63
2022/04/24 09:02:33;;;;;;;1.30;1.20;;;;;;;;;;5004220;28;20206;-64
2022/04/24 09:05:03;;;;;;;0.87;0.87;;;;;;;;;;5008419;28;20237;-63
2022/04/24 09:07:33;;;;;;;1.10;1.00;;;;;;;;;;5008244;28;20213;-62
2022/04/24 09:10:07;;;;;;;1.13;1.00;;;;;;;;;;5011311;28;20203;-62
2022/04/24 09:12:35;;;;;;;1.07;1.07;;;;;;;;;;5005536;28;20851;-65
2022/04/24 09:15:03;;;;;;;1.37;1.27;;;;;;;;;;5015488;28;20285;-63
2022/04/24 09:17:32;;;;;;;1.83;1.20;;;;;;;;;;5015111;28;20654;-64
2022/04/24 09:20:01;;;;;;;1.30;1.20;;;;;;;;;;5008800;28;20800;-64
2022/04/24 09:22:28;;;;;;;1.33;1.23;;;;;;;;;;5011125;28;20202;-64
2022/04/24 09:24:57;;;;;;;1.07;1.00;;;;;;;;;;5013318;28;20716;-65
2022/04/24 09:27:24;;;;;;;1.00;1.00;;;;;;;;;;5013723;28;20626;-63
2022/04/24 09:29:54;;;;;;;1.80;1.10;;;;;;;;;;5007092;28;20223;-64
2022/04/24 09:32:22;;;;;;;1.30;1.20;;;;;;;;;;5019036;28;20762;-62
2022/04/24 09:34:50;;;;;;;1.10;1.10;;;;;;;;;;5008994;28;20668;-63
2022/04/24 09:37:18;;;;;;;1.27;1.20;;;;;;;;;;5013363;28;20207;-63
2022/04/24 09:39:46;;;;;;;1.63;1.10;;;;;;;;;;5032460;28;20221;-64
2022/04/24 09:42:17;;;;;;;1.03;1.03;;;;;;;;;;5012834;28;20215;-65
2022/04/24 09:44:45;;;;;;;1.00;1.00;;;;;;;;;;5021180;28;20211;-64
2022/04/24 09:47:33;;;;;;;0.70;0.70;;;;;;;;;;5022361;28;21383;-64
2022/04/24 09:50:02;;;;;;;0.90;0.90;;;;;;;;;;5022493;28;20250;-64
2022/04/24 09:52:31;;;;;;;1.10;1.10;;;;;;;;;;5018055;28;20301;-65
2022/04/24 09:55:00;;;;;;;1.43;0.87;;;;;;;;;;5007516;28;20449;-65
2022/04/24 09:57:30;;;;;;;1.00;1.00;;;;;;;;;;5015787;28;20210;-63
2022/04/24 09:59:57;;;;;;;0.83;0.83;;;;;;;;;;5025184;28;20202;-63
2022/04/24 10:02:26;;;;;;;0.90;0.90;;;;;;;;;;5021897;28;20211;-64
2022/04/24 10:04:54;;;;;;;0.90;0.90;;;;;;;;;;5018038;28;20266;-64
2022/04/24 10:07:22;;;;;;;0.87;0.87;;;;;;;;;;5021823;28;20656;-64
2022/04/24 10:09:49;;;;;;;0.80;0.80;;;;;;;;;;5008748;28;20615;-63
2022/04/24 10:12:18;;;;;;;0.80;0.80;;;;;;;;;;5020293;28;20290;-63
2022/04/24 10:14:48;;;;;;;0.80;0.80;;;;;;;;;;5018437;28;20448;-62
2022/04/24 10:17:28;;;;;;;0.70;0.70;;;;;;;;;;5015532;28;20242;-65
2022/04/24 10:20:15;;;;;;;0.70;0.70;;;;;;;;;;5022117;28;20512;-64
2022/04/24 10:22:47;;;;;;;0.87;0.87;;;;;;;;;;5010584;28;20270;-62
2022/04/24 10:25:15;;;;;;;1.50;1.03;;;;;;;;;;5015509;28;20231;-65
2022/04/24 10:27:46;;;;;;;1.00;1.00;;;;;;;;;;5016494;28;20207;-63
2022/04/24 10:30:19;;;;;;;0.97;0.97;;;;;;;;;;5021524;28;20657;-64
2022/04/24 10:32:48;;;;;;;1.13;0.90;;;;;;;;;;5019491;28;20216;-64
2022/04/24 10:35:19;;;;;;;1.00;1.00;;;;;;;;;;5010089;28;20227;-64
2022/04/24 10:37:48;;;;;;;1.50;1.40;;;;;;;;;;5020862;28;20230;-64
2022/04/24 10:40:17;;;;;;;1.87;1.00;;;;;;;;;;5008639;28;20727;-63
2022/04/24 10:42:44;;;;;;;0.90;0.90;;;;;;;;;;5014745;28;20249;-64
2022/04/24 10:45:19;;;;;;;0.97;0.97;;;;;;;;;;5010004;28;20249;-62
2022/04/24 10:47:50;;;;;;;2.10;1.03;;;;;;;;;;5010814;28;20277;-64
2022/04/24 10:50:18;;;;;;;1.40;1.30;;;;;;;;;;5010425;28;20221;-64
2022/04/24 10:52:46;;;;;;;1.77;1.30;;;;;;;;;;5013624;28;20577;-63
2022/04/24 10:55:15;;;;;;;1.33;1.23;;;;;;;;;;5012635;28;20685;-63
2022/04/24 10:57:44;;;;;;;1.10;1.10;;;;;;;;;;5014578;28;20731;-63
2022/04/24 11:00:22;;;;;;;1.00;1.00;;;;;;;;;;5016230;28;20354;-64
2022/04/24 11:02:51;;;;;;;1.30;1.20;;;;;;;;;;5019311;28;20730;-64
2022/04/24 11:05:20;;;;;;;1.30;1.30;;;;;;;;;;5019177;28;20234;-64
2022/04/24 11:07:48;;;;;;;1.03;0.90;;;;;;;;;;5021965;28;20214;-63
2022/04/24 11:10:20;;;;;;;0.80;0.80;;;;;;;;;;5020650;28;20203;-63
2022/04/24 11:12:48;;;;;;;0.90;0.90;;;;;;;;;;5015502;28;20208;-64
2022/04/24 11:15:16;;;;;;;1.87;1.00;;;;;;;;;;5017805;28;20253;-62
2022/04/24 11:17:43;;;;;;;0.80;0.80;;;;;;;;;;5016363;28;20195;-64
2022/04/24 11:20:15;;;;;;;1.03;1.00;;;;;;;;;;5016325;28;20215;-63
2022/04/24 11:22:46;;;;;;;2.70;1.17;;;;;;;;;;5016385;28;20700;-64
2022/04/24 11:25:14;;;;;;;1.10;1.10;;;;;;;;;;5012069;28;20699;-62
2022/04/24 11:27:44;;;;;;;1.10;0.93;;;;;;;;;;5014666;28;20202;-64
2022/04/24 11:30:15;;;;;;;1.00;1.00;;;;;;;;;;5015112;28;20207;-64
2022/04/24 11:32:54;;;;;;;1.00;1.00;;;;;;;;;;5014548;28;20210;-62
2022/04/24 11:35:22;;;;;;;1.00;0.90;;;;;;;;;;5016549;28;20250;-63
2022/04/24 11:37:50;;;;;;;1.00;1.00;;;;;;;;;;5016127;28;20202;-64
2022/04/24 11:40:18;;;;;;;1.20;1.20;;;;;;;;;;5019808;28;20850;-64
2022/04/24 11:43:07;;;;;;;1.73;1.20;;;;;;;;;;5018887;28;20211;-62
2022/04/24 11:51:17;;;;;;;0.90;0.90;;;;;;;;;;5008484;28;20211;-63
2022/04/24 11:54:06;;;;;;;1.33;1.23;;;;;;;;;;5009545;28;21326;-62
2022/04/24 11:56:33;;;;;;;1.27;1.17;;;;;;;;;;5018257;28;20655;-64
2022/04/24 11:59:11;;;;;;;1.10;1.10;;;;;;;;;;5011113;28;20210;-63
2022/04/24 12:01:38;;;;;;;1.70;1.60;;;;;;;;;;5007926;28;20345;-64
2022/04/24 12:04:06;;;;;;;1.30;1.20;;;;;;;;;;5000135;28;20207;-63
2022/04/24 12:06:34;;;;;;;0.80;0.80;;;;;;;;;;5006269;28;20241;-64
2022/04/24 12:09:10;;;;;;;1.30;1.20;;;;;;;;;;5007568;28;20215;-62
2022/04/24 12:11:37;;;;;;;0.90;0.90;;;;;;;;;;5005749;28;20214;-63
2022/04/24 12:14:10;;;;;;;1.10;1.00;;;;;;;;;;4998930;28;20285;-63
2022/04/24 12:16:39;;;;;;;1.47;1.00;;;;;;;;;;5013179;28;20231;-64
2022/04/24 12:19:07;;;;;;;1.53;1.40;;;;;;;;;;5009815;28;20218;-63
2022/04/24 12:21:44;;;;;;;1.30;1.20;;;;;;;;;;5010747;28;20218;-63
2022/04/24 12:24:11;;;;;;;1.10;1.00;;;;;;;;;;5011065;28;20206;-64
2022/04/24 12:26:49;;;;;;;1.57;0.87;;;;;;;;;;5009448;28;20728;-62
2022/04/24 12:29:17;;;;;;;0.80;0.80;;;;;;;;;;5012503;28;20292;-63
2022/04/24 12:31:45;;;;;;;1.00;1.00;;;;;;;;;;5016058;28;20223;-63
2022/04/24 12:34:13;;;;;;;1.20;1.20;;;;;;;;;;5014064;28;20298;-64
2022/04/24 12:36:51;;;;;;;9.60;8.07;;;;;;;;;;5022714;28;20716;-62
2022/04/24 12:39:26;;;;;;;3.33;3.03;;;;;;;;;;5012942;28;20204;-63
2022/04/24 12:41:53;;;;;;;7.00;6.30;;;;;;;;;;5010027;28;20209;-63
2022/04/24 12:44:21;;;;;;;1.07;1.00;;;;;;;;;;5008165;28;20211;-63
2022/04/24 12:46:57;;;;;;;1.40;1.30;;;;;;;;;;5016373;28;20595;-64
2022/04/24 12:49:29;;;;;;;1.00;1.00;;;;;;;;;;5012307;28;20261;-63
2022/04/24 12:51:58;;;;;;;0.87;0.87;;;;;;;;;;5018279;28;20225;-62
2022/04/24 12:54:25;;;;;;;0.63;0.63;;;;;;;;;;5011097;28;20570;-63
2022/04/24 12:56:53;;;;;;;0.50;0.50;;;;;;;;;;5006479;28;20798;-63
2022/04/24 12:59:21;;;;;;;1.70;1.53;;;;;;;;;;5015384;28;20209;-63
2022/04/24 13:01:48;;;;;;;1.70;1.60;;;;;;;;;;5013366;28;20208;-64
2022/04/24 13:04:20;;;;;;;9.23;7.00;;;;;;;;;;4996328;28;20215;-64
2022/04/24 13:06:49;;;;;;;5.37;4.63;;;;;;;;;;5004898;28;20721;-63
2022/04/24 13:09:23;;;;;;;7.80;6.77;;;;;;;;;;5012959;28;20680;-64
2022/04/24 13:11:53;;;;;;;1.57;1.47;;;;;;;;;;5007812;28;20213;-64
2022/04/24 13:14:21;;;;;;;3.33;2.90;;;;;;;;;;5022771;28;20210;-62
2022/04/24 13:19:37;;;;;;;1.50;1.40;;;;;;;;;;5021019;28;20210;-63
2022/04/24 13:22:05;;;;;;;0.70;0.70;;;;;;;;;;5014541;28;20207;-64
2022/04/24 13:24:32;;;;;;;0.70;0.70;;;;;;;;;;5012477;28;20213;-64
2022/04/24 13:27:00;;;;;;;0.60;0.60;;;;;;;;;;5023194;28;20203;-64
2022/04/24 13:29:29;;;;;;;0.70;0.70;;;;;;;;;;5022756;28;20218;-64
2022/04/24 13:31:57;;;;;;;0.63;0.63;;;;;;;;;;5029338;28;20211;-64
2022/04/24 13:34:25;;;;;;;0.50;0.50;;;;;;;;;;5027811;28;20593;-64
2022/04/24 13:39:40;;;;;;;0.80;0.80;;;;;;;;;;5028816;28;20195;-65
2022/04/24 13:42:09;;;;;;;0.60;0.60;;;;;;;;;;5022093;28;20213;-63
2022/04/24 13:44:36;;;;;;;0.90;0.90;;;;;;;;;;5020879;28;20257;-62
2022/04/24 13:47:06;;;;;;;0.70;0.70;;;;;;;;;;5025607;28;20661;-64
2022/04/24 13:49:34;;;;;;;0.50;0.50;;;;;;;;;;5033188;28;20289;-64
2022/04/24 13:52:01;;;;;;;0.60;0.60;;;;;;;;;;5007799;28;20496;-64
2022/04/24 13:54:29;;;;;;;0.60;0.60;;;;;;;;;;5011444;28;20231;-63
2022/04/24 13:56:58;;;;;;;0.50;0.50;;;;;;;;;;5015002;28;20239;-64
2022/04/24 13:59:26;;;;;;;0.60;0.60;;;;;;;;;;5012286;28;20214;-64
2022/04/24 14:01:55;;;;;;;0.77;0.60;;;;;;;;;;5010739;28;20261;-64
2022/04/24 14:04:23;;;;;;;1.10;1.00;;;;;;;;;;5010874;28;20207;-64
2022/04/24 14:06:51;;;;;;;0.73;0.73;;;;;;;;;;5010956;28;20310;-61
2022/04/24 14:09:18;;;;;;;0.60;0.60;;;;;;;;;;5005504;28;20246;-63
2022/04/24 14:11:46;;;;;;;0.70;0.70;;;;;;;;;;5018389;28;20210;-64
2022/04/24 14:14:13;;;;;;;0.50;0.50;;;;;;;;;;5005647;28;20215;-64
2022/04/24 14:16:41;;;;;;;0.70;0.70;;;;;;;;;;5014094;28;20242;-62
2022/04/24 14:19:08;;;;;;;1.40;1.40;;;;;;;;;;5013142;28;20646;-65
2022/04/24 14:21:35;;;;;;;1.00;1.00;;;;;;;;;;5012199;28;20250;-63
2022/04/24 14:24:03;;;;;;;0.80;0.77;;;;;;;;;;5012213;28;20207;-63
2022/04/24 14:26:31;;;;;;;0.80;0.80;;;;;;;;;;5019718;28;20712;-64
2022/04/24 14:28:59;;;;;;;0.50;0.50;;;;;;;;;;5009983;28;20218;-64
2022/04/24 14:31:26;;;;;;;0.60;0.60;;;;;;;;;;5014643;28;20210;-65
2022/04/24 14:33:54;;;;;;;0.70;0.70;;;;;;;;;;5013384;28;20214;-65
2022/04/24 14:36:21;;;;;;;0.80;0.80;;;;;;;;;;5014705;28;20329;-61
2022/04/24 14:38:49;;;;;;;0.80;0.80;;;;;;;;;;5017167;28;20194;-64
2022/04/24 14:41:16;;;;;;;0.70;0.70;;;;;;;;;;5015995;28;20300;-63
2022/04/24 14:43:44;;;;;;;0.60;0.60;;;;;;;;;;5013839;28;20265;-63
2022/04/24 14:57:15;;;;;;;6.03;5.43;;;;;;;;;;5011791;28;20231;-63
2022/04/24 14:59:43;;;;;;;4.27;3.87;;;;;;;;;;5015748;28;20221;-64
2022/04/24 15:02:11;;;;;;;4.73;4.30;;;;;;;;;;5013328;28;20209;-64
2022/04/24 15:04:39;;;;;;;2.13;2.03;;;;;;;;;;5003706;28;20290;-64
2022/04/24 15:07:07;;;;;;;2.43;2.23;;;;;;;;;;5010744;28;20211;-63